createdAt,value
2019-01-31T00:00:59.012Z,1.37
2019-01-31T00:04:18.379Z,1.13
2019-01-31T00:07:13.988Z,1.10
2019-01-31T00:10:24.653Z,1.20
2019-01-31T00:13:20.039Z,1.00
2019-01-31T00:16:22.505Z,0.93
2019-01-31T00:19:24.235Z,1.20
2019-01-31T00:22:32.251Z,1.20
2019-01-31T00:25:30.525Z,1.17
2019-01-31T00:28:36.125Z,1.10
2019-01-31T00:31:37.275Z,1.27
2019-01-31T00:34:45.078Z,1.00
2019-01-31T00:38:02.681Z,1.43
2019-01-31T00:41:19.821Z,1.00
2019-01-31T00:44:26.766Z,1.13
2019-01-31T00:47:29.338Z,1.00
2019-01-31T00:50:28.229Z,1.10
2019-01-31T00:53:30.725Z,1.10
2019-01-31T00:56:29.233Z,0.83
2019-01-31T00:59:33.831Z,1.20
2019-01-31T01:02:29.409Z,0.90
2019-01-31T01:05:38.323Z,0.83
2019-01-31T01:08:33.527Z,1.17
2019-01-31T01:11:42.686Z,1.00
2019-01-31T01:14:44.325Z,1.00
2019-01-31T01:17:52.825Z,0.90
2019-01-31T01:21:05.523Z,1.03
2019-01-31T01:24:12.820Z,0.90
2019-01-31T01:27:08.655Z,1.07
2019-01-31T01:30:27.891Z,0.80
2019-01-31T01:33:26.818Z,0.93
2019-01-31T01:36:36.273Z,0.67
2019-01-31T01:39:58.054Z,1.20
2019-01-31T01:43:02.930Z,1.23
2019-01-31T01:46:16.476Z,0.77
2019-01-31T01:49:33.227Z,1.03
2019-01-31T01:52:35.099Z,0.70
2019-01-31T01:55:40.591Z,0.90
2019-01-31T01:58:42.381Z,0.80
2019-01-31T02:01:50.972Z,0.60
2019-01-31T02:05:03.425Z,0.90
2019-01-31T02:08:12.833Z,0.70
2019-01-31T02:11:23.473Z,0.70
2019-01-31T02:14:30.209Z,0.90
2019-01-31T02:17:39.015Z,0.70
2019-01-31T02:20:58.441Z,0.80
2019-01-31T02:24:11.964Z,0.80
2019-01-31T02:27:20.777Z,0.80
2019-01-31T02:30:15.619Z,0.87
2019-01-31T02:33:17.959Z,0.77
2019-01-31T02:36:30.149Z,0.80
2019-01-31T02:39:42.304Z,0.80
2019-01-31T02:42:34.950Z,0.77
2019-01-31T02:45:36.679Z,0.70
2019-01-31T02:48:34.913Z,0.70
2019-01-31T02:51:49.773Z,0.50
2019-01-31T02:54:51.115Z,0.80
2019-01-31T02:57:53.562Z,0.90
2019-01-31T03:00:48.987Z,1.00
2019-01-31T03:04:06.086Z,0.70
2019-01-31T03:07:04.685Z,0.80
2019-01-31T03:10:09.395Z,0.60
2019-01-31T03:13:19.943Z,0.70
2019-01-31T03:16:23.462Z,0.73
2019-01-31T03:19:19.212Z,0.77
2019-01-31T03:22:21.524Z,0.70
2019-01-31T03:25:16.749Z,0.70
2019-01-31T03:28:19.060Z,0.60
2019-01-31T03:31:17.216Z,0.67
2019-01-31T03:34:28.480Z,0.50
2019-01-31T03:37:31.396Z,0.67
2019-01-31T03:40:26.790Z,0.67
2019-01-31T03:43:35.620Z,0.70
2019-01-31T03:46:40.617Z,0.70
2019-01-31T03:49:45.496Z,0.70
2019-01-31T03:52:50.858Z,0.50
2019-01-31T03:55:46.212Z,0.73
2019-01-31T03:58:51.394Z,0.77
2019-01-31T04:02:05.748Z,0.53
2019-01-31T04:05:08.462Z,0.50
2019-01-31T04:08:02.993Z,0.70
2019-01-31T04:11:04.815Z,0.50
2019-01-31T04:13:58.338Z,0.70
2019-01-31T04:16:59.375Z,0.57
2019-01-31T04:19:52.878Z,0.53
2019-01-31T04:22:55.761Z,0.80
2019-01-31T04:25:49.931Z,0.50
2019-01-31T04:28:50.932Z,0.57
2019-01-31T04:31:46.301Z,0.53
2019-01-31T04:34:47.190Z,0.60
2019-01-31T04:37:55.022Z,0.47
2019-01-31T04:40:58.210Z,0.57
2019-01-31T04:43:52.150Z,0.70
2019-01-31T04:46:53.544Z,0.60
2019-01-31T04:49:47.590Z,0.70
2019-01-31T04:52:48.512Z,0.77
2019-01-31T04:55:55.682Z,0.50
2019-01-31T04:58:56.418Z,0.70
2019-01-31T05:01:50.948Z,0.97
2019-01-31T05:04:52.538Z,0.53
2019-01-31T05:07:46.834Z,0.60
2019-01-31T05:10:48.270Z,0.53
2019-01-31T05:13:42.593Z,0.67
2019-01-31T05:16:43.413Z,0.60
2019-01-31T05:19:38.676Z,0.57
2019-01-31T05:22:39.818Z,0.70
2019-01-31T05:25:34.333Z,0.50
2019-01-31T05:28:35.712Z,0.77
2019-01-31T05:31:31.225Z,0.47
2019-01-31T05:34:32.328Z,0.60
2019-01-31T05:37:26.539Z,0.70
2019-01-31T05:40:28.348Z,0.80
2019-01-31T05:43:21.941Z,0.67
2019-01-31T05:46:23.466Z,0.67
2019-01-31T05:49:18.009Z,0.63
2019-01-31T05:52:18.757Z,0.60
2019-01-31T05:55:14.092Z,0.70
2019-01-31T05:58:15.751Z,0.60
2019-01-31T06:01:09.466Z,0.80
2019-01-31T06:04:13.381Z,0.80
2019-01-31T06:07:11.096Z,0.60
2019-01-31T06:10:11.712Z,0.77
2019-01-31T06:13:05.105Z,0.77
2019-01-31T06:16:06.883Z,0.60
2019-01-31T06:19:01.276Z,0.83
2019-01-31T06:22:02.924Z,0.80
2019-01-31T06:24:57.275Z,0.70
2019-01-31T06:27:58.527Z,0.77
2019-01-31T06:30:52.851Z,0.80
2019-01-31T06:33:55.107Z,0.97
2019-01-31T06:36:48.797Z,0.97
2019-01-31T06:39:49.757Z,0.70
2019-01-31T06:42:44.048Z,0.93
2019-01-31T06:45:48.631Z,1.00
2019-01-31T06:48:42.734Z,0.80
2019-01-31T06:51:44.149Z,0.77
2019-01-31T06:54:51.334Z,0.90
2019-01-31T06:57:52.289Z,1.00
2019-01-31T07:00:46.069Z,1.10
2019-01-31T07:03:47.049Z,0.73
2019-01-31T07:06:41.555Z,1.07
2019-01-31T07:09:43.114Z,0.87
2019-01-31T07:12:37.489Z,0.80
2019-01-31T07:15:38.493Z,1.00
2019-01-31T07:18:31.666Z,0.93
2019-01-31T07:21:33.178Z,0.70
2019-01-31T07:24:26.968Z,1.00
2019-01-31T07:27:29.585Z,0.87
2019-01-31T07:30:26.840Z,0.80
2019-01-31T07:33:27.003Z,0.80
2019-01-31T07:36:20.810Z,0.70
2019-01-31T07:39:21.095Z,0.87
2019-01-31T07:42:15.011Z,0.83
2019-01-31T07:45:17.659Z,0.63
2019-01-31T07:48:11.169Z,0.70
2019-01-31T07:51:11.791Z,0.70
2019-01-31T07:54:07.123Z,0.90
2019-01-31T07:57:08.197Z,1.10
2019-01-31T08:00:02.495Z,1.10
2019-01-31T08:03:03.268Z,0.73
2019-01-31T08:05:58.861Z,0.90
2019-01-31T08:09:00.290Z,0.90
2019-01-31T08:11:56.801Z,1.00
2019-01-31T08:14:58.624Z,0.97
2019-01-31T08:17:56.083Z,1.00
2019-01-31T08:20:57.205Z,0.90
2019-01-31T08:23:51.577Z,0.90
2019-01-31T08:26:55.887Z,0.77
2019-01-31T08:29:49.154Z,0.80
2019-01-31T08:32:50.006Z,0.90
2019-01-31T08:35:51.818Z,0.80
2019-01-31T08:38:52.586Z,0.97
2019-01-31T08:42:03.954Z,0.90
2019-01-31T08:45:03.568Z,1.07
2019-01-31T08:47:57.717Z,0.60
2019-01-31T08:50:59.190Z,0.80
2019-01-31T08:53:59.350Z,0.87
2019-01-31T08:57:01.130Z,0.90
2019-01-31T08:59:55.935Z,1.20
2019-01-31T09:02:57.592Z,0.70
2019-01-31T09:05:51.305Z,0.80
2019-01-31T09:08:53.150Z,0.93
2019-01-31T09:11:47.068Z,0.77
2019-01-31T09:14:47.818Z,0.70
2019-01-31T09:17:42.292Z,0.83
2019-01-31T09:20:47.551Z,0.80
2019-01-31T09:23:42.891Z,1.00
2019-01-31T09:26:48.557Z,0.80
2019-01-31T09:29:50.173Z,1.00
2019-01-31T09:32:59.633Z,0.90
2019-01-31T09:36:14.074Z,1.07
2019-01-31T09:39:19.522Z,1.40
2019-01-31T09:42:26.748Z,1.33
2019-01-31T09:45:35.700Z,1.40
2019-01-31T09:48:40.724Z,1.60
2019-01-31T09:51:45.291Z,1.30
2019-01-31T09:54:54.743Z,1.30
2019-01-31T09:57:56.719Z,1.10
2019-01-31T10:01:08.513Z,1.17
2019-01-31T10:04:10.927Z,1.27
2019-01-31T10:07:23.525Z,1.50
2019-01-31T10:10:32.471Z,1.70
2019-01-31T10:13:27.821Z,1.80
2019-01-31T10:16:30.963Z,1.87
2019-01-31T10:19:32.717Z,1.87
2019-01-31T10:22:38.029Z,2.30
2019-01-31T10:25:36.685Z,2.10
2019-01-31T10:28:58.302Z,2.20
2019-01-31T10:32:08.990Z,2.37
2019-01-31T10:35:16.901Z,2.90
2019-01-31T10:38:21.389Z,2.50
2019-01-31T10:41:25.036Z,2.63
2019-01-31T10:44:33.689Z,2.77
2019-01-31T10:47:29.322Z,2.33
2019-01-31T10:50:51.127Z,2.10
2019-01-31T10:53:56.784Z,2.20
2019-01-31T10:56:55.904Z,2.37
2019-01-31T10:59:59.807Z,2.13
2019-01-31T11:03:04.134Z,2.50
2019-01-31T11:06:12.789Z,1.83
2019-01-31T11:09:19.980Z,1.90
2019-01-31T11:12:22.322Z,2.17
2019-01-31T11:15:34.558Z,2.00
2019-01-31T11:18:41.135Z,2.10
2019-01-31T11:21:36.588Z,1.90
2019-01-31T11:24:42.249Z,2.00
2019-01-31T11:27:40.750Z,2.13
2019-01-31T11:30:51.679Z,2.10
2019-01-31T11:34:07.371Z,2.20
2019-01-31T11:37:12.046Z,2.13
2019-01-31T11:40:07.476Z,2.30
2019-01-31T11:43:11.950Z,2.30
2019-01-31T11:46:10.271Z,2.10
2019-01-31T11:49:12.424Z,1.87
2019-01-31T11:52:19.935Z,2.20
2019-01-31T11:55:23.240Z,2.20
2019-01-31T11:58:28.151Z,2.13
2019-01-31T12:01:29.630Z,1.90
2019-01-31T12:04:24.113Z,2.30
2019-01-31T12:07:25.659Z,2.00
2019-01-31T12:10:19.834Z,2.27
2019-01-31T12:13:23.598Z,2.27
2019-01-31T12:16:17.115Z,2.43
2019-01-31T12:19:21.196Z,2.60
2019-01-31T12:22:15.238Z,2.27
2019-01-31T12:25:16.229Z,2.73
2019-01-31T12:28:10.372Z,2.47
2019-01-31T12:31:14.637Z,2.47
2019-01-31T12:34:08.507Z,2.33
2019-01-31T12:37:09.542Z,2.90
2019-01-31T12:40:06.121Z,2.60
2019-01-31T12:43:07.554Z,2.70
2019-01-31T12:46:01.409Z,2.37
2019-01-31T12:49:02.790Z,2.80
2019-01-31T12:51:57.029Z,2.33
2019-01-31T12:54:58.513Z,2.37
2019-01-31T12:57:53.031Z,2.80
2019-01-31T13:00:55.193Z,2.30
2019-01-31T13:03:50.304Z,2.40
2019-01-31T13:06:57.484Z,2.13
2019-01-31T13:10:06.162Z,2.10
2019-01-31T13:13:07.943Z,2.53
2019-01-31T13:16:02.024Z,2.60
2019-01-31T13:19:04.596Z,2.63
2019-01-31T13:21:59.003Z,2.20
2019-01-31T13:25:02.310Z,2.10
2019-01-31T13:28:02.824Z,2.00
2019-01-31T13:30:57.230Z,2.43
2019-01-31T13:33:52.983Z,2.40
2019-01-31T13:36:53.251Z,2.30
2019-01-31T13:40:00.504Z,2.50
2019-01-31T13:43:01.076Z,2.40
2019-01-31T13:45:54.709Z,2.50
2019-01-31T13:48:57.246Z,2.27
2019-01-31T13:51:51.558Z,2.30
2019-01-31T13:54:52.299Z,2.70
2019-01-31T13:57:47.382Z,2.50
2019-01-31T14:00:47.925Z,2.20
2019-01-31T14:03:41.618Z,2.20
2019-01-31T14:06:43.477Z,2.00
2019-01-31T14:09:37.580Z,2.17
2019-01-31T14:12:39.660Z,2.27
2019-01-31T14:15:35.181Z,2.20
2019-01-31T14:18:37.229Z,2.20
2019-01-31T14:21:31.728Z,1.90
2019-01-31T14:24:33.142Z,2.43
2019-01-31T14:27:27.306Z,2.73
2019-01-31T14:30:32.497Z,2.90
2019-01-31T14:33:26.596Z,2.80
2019-01-31T14:36:28.027Z,2.50
2019-01-31T14:39:21.738Z,2.10
2019-01-31T14:42:23.417Z,2.40
2019-01-31T14:45:21.240Z,2.20
2019-01-31T14:48:22.887Z,2.30
2019-01-31T14:51:16.334Z,2.30
2019-01-31T14:54:18.588Z,2.10
2019-01-31T14:57:12.433Z,2.70
2019-01-31T15:00:15.894Z,2.60
2019-01-31T15:03:10.148Z,2.50
2019-01-31T15:06:12.471Z,2.77
2019-01-31T15:09:14.453Z,2.77
2019-01-31T15:12:09.240Z,2.70
2019-01-31T15:15:03.240Z,2.67
2019-01-31T15:18:03.564Z,2.20
2019-01-31T15:21:10.690Z,2.47
2019-01-31T15:24:11.770Z,2.70
2019-01-31T15:27:05.534Z,2.40
2019-01-31T15:30:06.576Z,2.13
2019-01-31T15:33:13.613Z,2.90
2019-01-31T15:36:15.139Z,2.20
2019-01-31T15:39:08.915Z,2.20
2019-01-31T15:42:10.641Z,2.47
2019-01-31T15:45:18.782Z,2.40
2019-01-31T15:48:20.074Z,2.60
2019-01-31T15:51:13.814Z,2.80
2019-01-31T15:54:15.629Z,2.20
2019-01-31T15:57:16.383Z,2.50
2019-01-31T16:00:17.125Z,2.30
2019-01-31T16:03:11.572Z,2.40
2019-01-31T16:06:13.423Z,2.20
2019-01-31T16:09:07.104Z,2.30
2019-01-31T16:12:08.726Z,2.30
2019-01-31T16:15:03.168Z,2.20
2019-01-31T16:18:04.296Z,2.27
2019-01-31T16:20:57.941Z,2.07
2019-01-31T16:23:58.847Z,2.10
2019-01-31T16:26:52.595Z,2.13
2019-01-31T16:29:53.887Z,2.40
2019-01-31T16:32:48.260Z,1.90
2019-01-31T16:35:49.644Z,2.20
2019-01-31T16:38:43.279Z,2.47
2019-01-31T16:41:44.538Z,2.17
2019-01-31T16:44:38.097Z,2.17
2019-01-31T16:47:39.184Z,1.90
2019-01-31T16:50:33.177Z,2.07
2019-01-31T16:53:34.016Z,2.80
2019-01-31T16:56:27.721Z,2.20
2019-01-31T16:59:28.758Z,2.50
2019-01-31T17:02:23.095Z,2.37
2019-01-31T17:05:25.717Z,1.80
2019-01-31T17:08:19.481Z,2.20
2019-01-31T17:11:20.441Z,2.20
2019-01-31T17:14:17.706Z,1.90
2019-01-31T17:17:20.536Z,1.93
2019-01-31T17:20:22.482Z,2.50
2019-01-31T17:23:23.620Z,1.83
2019-01-31T17:26:18.149Z,2.10
2019-01-31T17:29:18.942Z,2.00
2019-01-31T17:32:15.374Z,1.90
2019-01-31T17:35:16.604Z,2.03
2019-01-31T17:38:11.006Z,2.03
2019-01-31T17:41:12.731Z,2.10
2019-01-31T17:44:08.940Z,2.00
2019-01-31T17:47:10.404Z,2.00
2019-01-31T17:50:19.645Z,2.00
2019-01-31T17:53:21.815Z,2.00
2019-01-31T17:56:15.270Z,2.13
2019-01-31T17:59:18.006Z,2.00
2019-01-31T18:02:12.358Z,2.10
2019-01-31T18:05:14.757Z,2.03
2019-01-31T18:08:09.523Z,2.07
2019-01-31T18:11:10.711Z,2.10
2019-01-31T18:14:05.371Z,2.40
2019-01-31T18:17:06.262Z,2.47
2019-01-31T18:19:59.953Z,2.20
2019-01-31T18:23:00.186Z,2.70
2019-01-31T18:25:54.997Z,2.20
2019-01-31T18:28:56.733Z,2.40
2019-01-31T18:31:50.195Z,2.53
2019-01-31T18:34:52.099Z,2.67
2019-01-31T18:37:45.644Z,2.60
2019-01-31T18:40:46.407Z,2.40
2019-01-31T18:43:40.055Z,2.50
2019-01-31T18:46:41.753Z,2.33
2019-01-31T18:49:36.249Z,2.20
2019-01-31T18:52:37.899Z,2.70
2019-01-31T18:55:32.256Z,2.50
2019-01-31T18:58:34.027Z,2.43
2019-01-31T19:01:28.392Z,2.67
2019-01-31T19:04:29.809Z,2.40
2019-01-31T19:07:23.833Z,2.53
2019-01-31T19:10:25.373Z,2.30
2019-01-31T19:13:19.677Z,2.57
2019-01-31T19:16:20.239Z,2.17
2019-01-31T19:19:20.720Z,2.47
2019-01-31T19:22:22.036Z,2.27
2019-01-31T19:25:15.937Z,2.50
2019-01-31T19:28:17.418Z,2.40
2019-01-31T19:31:11.993Z,2.40
2019-01-31T19:34:12.797Z,2.30
2019-01-31T19:37:19.693Z,2.50
2019-01-31T19:40:21.309Z,2.40
2019-01-31T19:43:15.374Z,2.57
2019-01-31T19:46:16.978Z,2.30
2019-01-31T19:49:11.159Z,2.43
2019-01-31T19:52:12.147Z,2.47
2019-01-31T19:55:08.405Z,2.37
2019-01-31T19:58:09.522Z,2.50
2019-01-31T20:01:06.067Z,2.50
2019-01-31T20:04:07.616Z,2.43
2019-01-31T20:07:02.048Z,2.30
2019-01-31T20:10:02.945Z,2.53
2019-01-31T20:12:58.006Z,2.60
2019-01-31T20:15:59.058Z,2.50
2019-01-31T20:18:52.773Z,2.70
2019-01-31T20:21:53.811Z,2.60
2019-01-31T20:24:48.337Z,2.50
2019-01-31T20:27:51.100Z,2.87
2019-01-31T20:30:51.450Z,2.50
2019-01-31T20:33:45.991Z,2.60
2019-01-31T20:36:40.560Z,2.43
2019-01-31T20:39:41.131Z,2.70
2019-01-31T20:42:35.754Z,2.77
2019-01-31T20:45:35.782Z,2.80
2019-01-31T20:48:43.124Z,2.40
2019-01-31T20:51:59.077Z,2.50
2019-01-31T20:55:06.078Z,2.50
2019-01-31T21:01:02.951Z,2.70
2019-01-31T21:04:04.176Z,2.80
2019-01-31T21:06:58.392Z,2.73
2019-01-31T21:09:59.786Z,2.97
2019-01-31T21:12:54.275Z,2.70
2019-01-31T21:15:54.496Z,2.83
2019-01-31T21:18:48.211Z,2.77
2019-01-31T21:21:49.188Z,3.00
2019-01-31T21:24:42.593Z,2.80
2019-01-31T21:27:43.274Z,3.13
2019-01-31T21:30:41.974Z,2.70
2019-01-31T21:33:43.412Z,2.60
2019-01-31T21:36:37.734Z,2.90
2019-01-31T21:39:38.755Z,2.37
2019-01-31T21:42:33.484Z,2.73
2019-01-31T21:45:34.008Z,2.70
2019-01-31T21:48:30.437Z,2.60
2019-01-31T21:51:30.892Z,2.60
2019-01-31T21:54:24.524Z,2.60
2019-01-31T21:57:26.117Z,2.63
2019-01-31T22:00:30.920Z,2.57
2019-01-31T22:03:34.887Z,2.70
2019-01-31T22:06:29.258Z,2.73
2019-01-31T22:09:30.430Z,2.60
2019-01-31T22:12:24.146Z,2.80
2019-01-31T22:15:26.519Z,2.77
2019-01-31T22:18:20.915Z,2.77
2019-01-31T22:21:22.314Z,2.70
2019-01-31T22:24:16.426Z,2.43
2019-01-31T22:27:18.799Z,2.47
2019-01-31T22:30:17.212Z,2.70
2019-01-31T22:33:19.664Z,2.60
2019-01-31T22:36:20.358Z,2.47
2019-01-31T22:39:14.560Z,2.60
2019-01-31T22:42:09.016Z,2.40
2019-01-31T22:45:10.417Z,2.60
2019-01-31T22:48:04.619Z,2.57
2019-01-31T22:51:05.038Z,2.90
2019-01-31T22:54:13.468Z,2.73
2019-01-31T22:57:14.636Z,2.50
2019-01-31T23:00:10.060Z,2.83
2019-01-31T23:03:10.774Z,2.60
2019-01-31T23:06:06.332Z,2.53
2019-01-31T23:09:06.908Z,2.40
2019-01-31T23:12:02.142Z,2.80
2019-01-31T23:15:03.245Z,2.80
2019-01-31T23:17:57.724Z,2.67
2019-01-31T23:20:58.188Z,2.40
2019-01-31T23:23:52.402Z,2.50
2019-01-31T23:26:53.582Z,2.63
2019-01-31T23:29:54.248Z,2.50
2019-01-31T23:32:48.472Z,2.60
2019-01-31T23:35:42.724Z,2.57
2019-01-31T23:38:42.786Z,2.60
2019-01-31T23:41:37.090Z,2.50
2019-01-31T23:44:37.750Z,2.27
2019-01-31T23:47:48.417Z,2.70
2019-01-31T23:50:34.497Z,2.80
2019-01-31T23:53:28.154Z,2.80
2019-01-31T23:56:28.357Z,2.40
2019-01-31T23:59:22.531Z,2.90
